sensor_id;sensor_type;location;lat;lon;timestamp;pressure;altitude;pressure_sealevel;temperature;humidity
48644;BME280;34928;37.302;-121.984;2022-10-16T00:06:00;100522.0;;;29.72;29.49
48644;BME280;34928;37.302;-121.984;2022-10-16T00:16:08;100521.0;;;29.82;29.43
48644;BME280;34928;37.302;-121.984;2022-10-16T00:26:16;100526.0;;;30.08;29.30
48644;BME280;34928;37.302;-121.984;2022-10-16T00:36:24;100527.0;;;30.22;29.09
48644;BME280;34928;37.302;-121.984;2022-10-16T00:46:29;100530.0;;;30.12;29.44
48644;BME280;34928;37.302;-121.984;2022-10-16T00:56:37;100536.0;;;30.13;29.57
48644;BME280;34928;37.302;-121.984;2022-10-16T01:06:49;100542.0;;;29.82;29.50
48644;BME280;34928;37.302;-121.984;2022-10-16T01:17:01;100556.0;;;30.22;29.23
48644;BME280;34928;37.302;-121.984;2022-10-16T01:27:11;100568.0;;;29.98;29.19
48644;BME280;34928;37.302;-121.984;2022-10-16T01:37:36;100570.0;;;29.68;29.06
48644;BME280;34928;37.302;-121.984;2022-10-16T01:47:43;100573.0;;;30.27;28.84
48644;BME280;34928;37.302;-121.984;2022-10-16T01:57:49;100587.0;;;30.24;28.80
48644;BME280;34928;37.302;-121.984;2022-10-16T02:07:58;100593.0;;;29.95;28.85
48644;BME280;34928;37.302;-121.984;2022-10-16T02:18:03;100593.0;;;29.96;28.74
48644;BME280;34928;37.302;-121.984;2022-10-16T02:28:11;100594.0;;;29.84;28.76
48644;BME280;34928;37.302;-121.984;2022-10-16T02:38:18;100607.0;;;29.60;28.63
48644;BME280;34928;37.302;-121.984;2022-10-16T02:48:22;100614.0;;;30.15;28.43
48644;BME280;34928;37.302;-121.984;2022-10-16T02:58:27;100620.0;;;30.17;28.34
48644;BME280;34928;37.302;-121.984;2022-10-16T03:08:32;100622.0;;;30.16;28.25
48644;BME280;34928;37.302;-121.984;2022-10-16T03:18:37;100629.0;;;29.93;28.18
48644;BME280;34928;37.302;-121.984;2022-10-16T03:28:42;100637.0;;;29.86;28.18
48644;BME280;34928;37.302;-121.984;2022-10-16T03:38:47;100638.0;;;29.87;28.07
48644;BME280;34928;37.302;-121.984;2022-10-16T03:48:53;100648.0;;;30.02;28.09
48644;BME280;34928;37.302;-121.984;2022-10-16T03:58:57;100658.0;;;30.04;28.03
48644;BME280;34928;37.302;-121.984;2022-10-16T04:09:03;100662.0;;;29.77;28.00
48644;BME280;34928;37.302;-121.984;2022-10-16T04:19:08;100675.0;;;29.78;27.93
48644;BME280;34928;37.302;-121.984;2022-10-16T04:29:12;100671.0;;;29.89;28.01
48644;BME280;34928;37.302;-121.984;2022-10-16T04:39:17;100676.0;;;30.04;27.81
48644;BME280;34928;37.302;-121.984;2022-10-16T04:49:22;100695.0;;;29.91;27.92
48644;BME280;34928;37.302;-121.984;2022-10-16T04:59:27;100699.0;;;29.94;27.85
48644;BME280;34928;37.302;-121.984;2022-10-16T05:09:32;100710.0;;;29.88;27.88
48644;BME280;34928;37.302;-121.984;2022-10-16T05:19:37;100713.0;;;29.40;27.72
48644;BME280;34928;37.302;-121.984;2022-10-16T05:29:42;100718.0;;;29.81;27.89
48644;BME280;34928;37.302;-121.984;2022-10-16T05:39:48;100717.0;;;29.71;28.18
48644;BME280;34928;37.302;-121.984;2022-10-16T05:49:52;100723.0;;;29.56;27.84
48644;BME280;34928;37.302;-121.984;2022-10-16T05:59:58;100731.0;;;29.62;27.62
48644;BME280;34928;37.302;-121.984;2022-10-16T06:10:03;100724.0;;;29.61;27.82
48644;BME280;34928;37.302;-121.984;2022-10-16T06:20:08;100721.0;;;29.69;27.84
48644;BME280;34928;37.302;-121.984;2022-10-16T06:30:12;100711.0;;;29.64;27.69
48644;BME280;34928;37.302;-121.984;2022-10-16T06:40:17;100710.0;;;29.57;27.62
48644;BME280;34928;37.302;-121.984;2022-10-16T06:50:22;100718.0;;;29.56;27.41
48644;BME280;34928;37.302;-121.984;2022-10-16T07:00:27;100725.0;;;29.40;27.34
48644;BME280;34928;37.302;-121.984;2022-10-16T07:10:33;100729.0;;;29.42;27.32
48644;BME280;34928;37.302;-121.984;2022-10-16T07:20:37;100724.0;;;29.41;27.25
48644;BME280;34928;37.302;-121.984;2022-10-16T07:30:43;100729.0;;;29.26;27.24
48644;BME280;34928;37.302;-121.984;2022-10-16T07:40:47;100721.0;;;29.28;27.16
48644;BME280;34928;37.302;-121.984;2022-10-16T07:50:52;100725.0;;;29.16;27.04
48644;BME280;34928;37.302;-121.984;2022-10-16T08:00:57;100740.0;;;29.31;27.19
48644;BME280;34928;37.302;-121.984;2022-10-16T08:11:02;100756.0;;;29.00;27.37
48644;BME280;34928;37.302;-121.984;2022-10-16T08:21:11;100766.0;;;28.97;27.36
48644;BME280;34928;37.302;-121.984;2022-10-16T08:31:17;100785.0;;;28.94;27.36
48644;BME280;34928;37.302;-121.984;2022-10-16T08:41:39;100792.0;;;29.18;27.20
48644;BME280;34928;37.302;-121.984;2022-10-16T08:51:52;100801.0;;;29.37;27.11
48644;BME280;34928;37.302;-121.984;2022-10-16T09:01:57;100805.0;;;29.21;27.33
48644;BME280;34928;37.302;-121.984;2022-10-16T09:12:08;100807.0;;;29.48;27.36
48644;BME280;34928;37.302;-121.984;2022-10-16T09:22:17;100814.0;;;29.37;27.36
48644;BME280;34928;37.302;-121.984;2022-10-16T09:32:22;100820.0;;;29.20;27.57
48644;BME280;34928;37.302;-121.984;2022-10-16T09:42:30;100818.0;;;29.32;27.49
48644;BME280;34928;37.302;-121.984;2022-10-16T09:52:37;100830.0;;;29.45;27.65
48644;BME280;34928;37.302;-121.984;2022-10-16T10:02:42;100839.0;;;29.45;27.71
48644;BME280;34928;37.302;-121.984;2022-10-16T10:12:48;100849.0;;;29.06;27.68
48644;BME280;34928;37.302;-121.984;2022-10-16T10:22:52;100850.0;;;29.52;27.71
48644;BME280;34928;37.302;-121.984;2022-10-16T10:33:11;100848.0;;;29.52;27.67
48644;BME280;34928;37.302;-121.984;2022-10-16T10:43:30;100841.0;;;29.27;27.72
48644;BME280;34928;37.302;-121.984;2022-10-16T10:53:43;100843.0;;;29.37;27.89
48644;BME280;34928;37.302;-121.984;2022-10-16T11:04:03;100853.0;;;29.15;27.86
48644;BME280;34928;37.302;-121.984;2022-10-16T11:14:16;100855.0;;;29.18;27.85
48644;BME280;34928;37.302;-121.984;2022-10-16T11:24:26;100857.0;;;29.21;28.08
48644;BME280;34928;37.302;-121.984;2022-10-16T11:34:41;100863.0;;;29.32;27.95
48644;BME280;34928;37.302;-121.984;2022-10-16T11:44:53;100873.0;;;29.21;28.03
48644;BME280;34928;37.302;-121.984;2022-10-16T11:55:08;100878.0;;;28.95;28.05
48644;BME280;34928;37.302;-121.984;2022-10-16T12:05:24;100882.0;;;29.08;27.86
48644;BME280;34928;37.302;-121.984;2022-10-16T12:15:33;100896.0;;;29.19;28.07
48644;BME280;34928;37.302;-121.984;2022-10-16T12:25:39;100907.0;;;29.14;28.02
48644;BME280;34928;37.302;-121.984;2022-10-16T12:35:44;100914.0;;;28.97;28.01
48644;BME280;34928;37.302;-121.984;2022-10-16T12:45:47;100917.0;;;29.08;28.05
48644;BME280;34928;37.302;-121.984;2022-10-16T12:56:08;100919.0;;;28.84;28.12
48644;BME280;34928;37.302;-121.984;2022-10-16T13:06:24;100925.0;;;28.92;28.01
48644;BME280;34928;37.302;-121.984;2022-10-16T13:16:42;100925.0;;;28.81;28.17
48644;BME280;34928;37.302;-121.984;2022-10-16T13:26:56;100935.0;;;28.99;28.24
48644;BME280;34928;37.302;-121.984;2022-10-16T13:37:02;100945.0;;;28.72;28.23
48644;BME280;34928;37.302;-121.984;2022-10-16T13:47:16;100946.0;;;28.94;28.23
48644;BME280;34928;37.302;-121.984;2022-10-16T13:57:24;100946.0;;;28.93;28.15
48644;BME280;34928;37.302;-121.984;2022-10-16T14:07:29;100951.0;;;28.95;28.16
48644;BME280;34928;37.302;-121.984;2022-10-16T14:17:34;100952.0;;;28.95;28.14
48644;BME280;34928;37.302;-121.984;2022-10-16T14:27:37;100954.0;;;28.93;28.17
48644;BME280;34928;37.302;-121.984;2022-10-16T14:37:43;100951.0;;;28.90;28.11
48644;BME280;34928;37.302;-121.984;2022-10-16T14:47:50;100960.0;;;28.64;28.10
48644;BME280;34928;37.302;-121.984;2022-10-16T14:57:57;100967.0;;;28.93;27.77
48644;BME280;34928;37.302;-121.984;2022-10-16T15:08:02;100982.0;;;28.81;28.10
48644;BME280;34928;37.302;-121.984;2022-10-16T15:18:07;101003.0;;;29.05;28.29
48644;BME280;34928;37.302;-121.984;2022-10-16T15:28:13;101015.0;;;28.90;28.17
48644;BME280;34928;37.302;-121.984;2022-10-16T15:38:19;101022.0;;;28.83;28.35
48644;BME280;34928;37.302;-121.984;2022-10-16T15:48:22;101044.0;;;28.98;28.27
48644;BME280;34928;37.302;-121.984;2022-10-16T15:58:28;101061.0;;;28.97;28.08
48644;BME280;34928;37.302;-121.984;2022-10-16T16:08:33;101065.0;;;28.85;28.28
48644;BME280;34928;37.302;-121.984;2022-10-16T16:18:39;101075.0;;;28.92;28.17
48644;BME280;34928;37.302;-121.984;2022-10-16T16:28:43;101082.0;;;29.00;28.06
48644;BME280;34928;37.302;-121.984;2022-10-16T16:38:47;101085.0;;;29.07;27.89
48644;BME280;34928;37.302;-121.984;2022-10-16T16:48:52;101092.0;;;29.24;27.65
48644;BME280;34928;37.302;-121.984;2022-10-16T16:58:57;101098.0;;;28.94;27.61
48644;BME280;34928;37.302;-121.984;2022-10-16T17:09:04;101113.0;;;28.86;27.67
48644;BME280;34928;37.302;-121.984;2022-10-16T17:19:10;101119.0;;;28.83;27.69
48644;BME280;34928;37.302;-121.984;2022-10-16T17:29:18;101130.0;;;28.81;27.68
48644;BME280;34928;37.302;-121.984;2022-10-16T17:39:22;101142.0;;;29.23;27.60
48644;BME280;34928;37.302;-121.984;2022-10-16T17:49:27;101147.0;;;28.99;27.75
48644;BME280;34928;37.302;-121.984;2022-10-16T17:59:32;101156.0;;;29.05;27.46
48644;BME280;34928;37.302;-121.984;2022-10-16T18:09:37;101149.0;;;28.78;27.64
48644;BME280;34928;37.302;-121.984;2022-10-16T18:19:42;101144.0;;;28.78;27.65
48644;BME280;34928;37.302;-121.984;2022-10-16T18:29:48;101140.0;;;29.02;27.66
48644;BME280;34928;37.302;-121.984;2022-10-16T18:39:52;101142.0;;;28.53;27.63
48644;BME280;34928;37.302;-121.984;2022-10-16T18:49:57;101144.0;;;28.83;27.54
48644;BME280;34928;37.302;-121.984;2022-10-16T19:00:03;101145.0;;;28.58;27.74
48644;BME280;34928;37.302;-121.984;2022-10-16T19:10:07;101143.0;;;29.21;27.04
48644;BME280;34928;37.302;-121.984;2022-10-16T19:20:12;101141.0;;;28.91;27.20
48644;BME280;34928;37.302;-121.984;2022-10-16T19:30:19;101143.0;;;29.35;26.71
48644;BME280;34928;37.302;-121.984;2022-10-16T19:40:22;101141.0;;;29.05;26.50
48644;BME280;34928;37.302;-121.984;2022-10-16T19:50:27;101136.0;;;28.66;27.30
48644;BME280;34928;37.302;-121.984;2022-10-16T20:00:32;101129.0;;;29.15;27.07
48644;BME280;34928;37.302;-121.984;2022-10-16T20:10:37;101113.0;;;28.90;27.19
48644;BME280;34928;37.302;-121.984;2022-10-16T20:20:45;101107.0;;;29.17;27.20
48644;BME280;34928;37.302;-121.984;2022-10-16T20:30:52;101098.0;;;29.06;27.16
48644;BME280;34928;37.302;-121.984;2022-10-16T20:41:02;101094.0;;;29.46;27.03
48644;BME280;34928;37.302;-121.984;2022-10-16T20:51:13;101083.0;;;29.33;27.01
48644;BME280;34928;37.302;-121.984;2022-10-16T21:01:19;101086.0;;;29.40;27.02
48644;BME280;34928;37.302;-121.984;2022-10-16T21:11:24;101083.0;;;29.19;27.07
48644;BME280;34928;37.302;-121.984;2022-10-16T21:21:29;101074.0;;;29.70;27.09
48644;BME280;34928;37.302;-121.984;2022-10-16T21:31:33;101072.0;;;29.56;27.09
48644;BME280;34928;37.302;-121.984;2022-10-16T21:41:38;101075.0;;;29.85;26.89
48644;BME280;34928;37.302;-121.984;2022-10-16T21:51:44;101069.0;;;29.65;27.14
48644;BME280;34928;37.302;-121.984;2022-10-16T22:01:48;101077.0;;;29.73;27.40
48644;BME280;34928;37.302;-121.984;2022-10-16T22:11:52;101068.0;;;29.53;27.46
48644;BME280;34928;37.302;-121.984;2022-10-16T22:21:57;101067.0;;;29.83;27.03
48644;BME280;34928;37.302;-121.984;2022-10-16T22:32:02;101077.0;;;29.63;26.12
48644;BME280;34928;37.302;-121.984;2022-10-16T22:42:07;101080.0;;;29.28;26.29
48644;BME280;34928;37.302;-121.984;2022-10-16T22:52:12;101091.0;;;29.44;26.58
48644;BME280;34928;37.302;-121.984;2022-10-16T23:02:17;101088.0;;;29.60;26.48
48644;BME280;34928;37.302;-121.984;2022-10-16T23:12:22;101086.0;;;29.74;26.16
48644;BME280;34928;37.302;-121.984;2022-10-16T23:22:27;101094.0;;;29.51;26.58
48644;BME280;34928;37.302;-121.984;2022-10-16T23:32:32;101094.0;;;29.55;26.57
48644;BME280;34928;37.302;-121.984;2022-10-16T23:42:38;101083.0;;;29.73;26.10
48644;BME280;34928;37.302;-121.984;2022-10-16T23:52:42;101090.0;;;29.69;26.40
